sensor_id;sensor_type;location;lat;lon;timestamp;pressure;altitude;pressure_sealevel;temperature;humidity
16690;BME280;8458;52.220;9.884;2023-05-08T00:01:54;101528.16;;;10.12;85.02
16690;BME280;8458;52.220;9.884;2023-05-08T00:04:21;101526.72;;;10.09;84.96
16690;BME280;8458;52.220;9.884;2023-05-08T00:06:48;101525.63;;;10.10;85.07
16690;BME280;8458;52.220;9.884;2023-05-08T00:09:15;101523.94;;;10.09;85.17
16690;BME280;8458;52.220;9.884;2023-05-08T00:11:42;101527.31;;;10.11;84.87
16690;BME280;8458;52.220;9.884;2023-05-08T00:14:08;101535.63;;;10.11;84.66
16690;BME280;8458;52.220;9.884;2023-05-08T00:16:35;101534.44;;;10.07;84.78
16690;BME280;8458;52.220;9.884;2023-05-08T00:19:01;101532.50;;;10.08;84.89
16690;BME280;8458;52.220;9.884;2023-05-08T00:21:29;101529.38;;;10.04;84.71
16690;BME280;8458;52.220;9.884;2023-05-08T00:23:56;101538.75;;;10.03;84.67
16690;BME280;8458;52.220;9.884;2023-05-08T00:26:22;101537.06;;;10.02;84.49
16690;BME280;8458;52.220;9.884;2023-05-08T00:28:49;101540.31;;;9.99;84.72
16690;BME280;8458;52.220;9.884;2023-05-08T00:31:15;101534.28;;;10.02;84.42
16690;BME280;8458;52.220;9.884;2023-05-08T00:33:42;101526.94;;;9.96;84.39
16690;BME280;8458;52.220;9.884;2023-05-08T00:36:08;101530.34;;;9.98;84.44
16690;BME280;8458;52.220;9.884;2023-05-08T00:38:36;101534.91;;;9.92;84.41
16690;BME280;8458;52.220;9.884;2023-05-08T00:41:03;101531.78;;;9.89;84.40
16690;BME280;8458;52.220;9.884;2023-05-08T00:43:29;101529.25;;;9.87;84.49
16690;BME280;8458;52.220;9.884;2023-05-08T00:45:59;101531.63;;;9.83;84.52
16690;BME280;8458;52.220;9.884;2023-05-08T00:48:27;101526.81;;;9.79;84.66
16690;BME280;8458;52.220;9.884;2023-05-08T00:50:55;101532.56;;;9.77;84.72
16690;BME280;8458;52.220;9.884;2023-05-08T00:53:22;101531.75;;;9.77;84.68
16690;BME280;8458;52.220;9.884;2023-05-08T00:55:51;101531.50;;;9.78;84.57
16690;BME280;8458;52.220;9.884;2023-05-08T00:58:17;101530.03;;;9.76;84.62
16690;BME280;8458;52.220;9.884;2023-05-08T01:00:45;101531.50;;;9.78;84.55
16690;BME280;8458;52.220;9.884;2023-05-08T01:03:12;101524.28;;;9.77;83.95
16690;BME280;8458;52.220;9.884;2023-05-08T01:05:39;101527.28;;;9.76;84.49
16690;BME280;8458;52.220;9.884;2023-05-08T01:08:06;101521.50;;;9.77;84.34
16690;BME280;8458;52.220;9.884;2023-05-08T01:10:40;101524.28;;;9.77;84.19
16690;BME280;8458;52.220;9.884;2023-05-08T01:13:15;101525.63;;;9.75;84.01
16690;BME280;8458;52.220;9.884;2023-05-08T01:16:01;101518.72;;;9.77;84.01
16690;BME280;8458;52.220;9.884;2023-05-08T01:18:35;101526.44;;;9.75;83.98
16690;BME280;8458;52.220;9.884;2023-05-08T01:21:11;101522.22;;;9.73;83.85
16690;BME280;8458;52.220;9.884;2023-05-08T01:24:08;101518.03;;;9.70;83.74
16690;BME280;8458;52.220;9.884;2023-05-08T01:26:52;101526.19;;;9.65;83.88
16690;BME280;8458;52.220;9.884;2023-05-08T01:29:46;101520.75;;;9.58;84.09
16690;BME280;8458;52.220;9.884;2023-05-08T01:32:20;101525.06;;;9.54;84.11
16690;BME280;8458;52.220;9.884;2023-05-08T01:34:56;101524.72;;;9.50;84.19
16690;BME280;8458;52.220;9.884;2023-05-08T01:37:29;101515.41;;;9.45;84.45
16690;BME280;8458;52.220;9.884;2023-05-08T01:40:07;101512.88;;;9.43;84.59
16690;BME280;8458;52.220;9.884;2023-05-08T01:42:42;101514.00;;;9.42;84.22
16690;BME280;8458;52.220;9.884;2023-05-08T01:45:17;101527.09;;;9.35;84.52
16690;BME280;8458;52.220;9.884;2023-05-08T01:47:50;101520.78;;;9.28;84.82
16690;BME280;8458;52.220;9.884;2023-05-08T01:50:23;101528.50;;;9.26;84.95
16690;BME280;8458;52.220;9.884;2023-05-08T01:52:56;101528.84;;;9.18;85.22
16690;BME280;8458;52.220;9.884;2023-05-08T01:55:26;101529.44;;;9.20;85.54
16690;BME280;8458;52.220;9.884;2023-05-08T01:57:57;101533.31;;;9.19;85.62
16690;BME280;8458;52.220;9.884;2023-05-08T02:00:25;101532.19;;;9.20;85.43
16690;BME280;8458;52.220;9.884;2023-05-08T02:02:54;101528.59;;;9.19;85.47
16690;BME280;8458;52.220;9.884;2023-05-08T02:05:22;101530.66;;;9.24;85.20
16690;BME280;8458;52.220;9.884;2023-05-08T02:07:50;101522.59;;;9.22;84.89
16690;BME280;8458;52.220;9.884;2023-05-08T02:10:18;101525.97;;;9.24;84.87
16690;BME280;8458;52.220;9.884;2023-05-08T02:12:47;101526.44;;;9.21;84.96
16690;BME280;8458;52.220;9.884;2023-05-08T02:15:15;101523.44;;;9.23;84.95
16690;BME280;8458;52.220;9.884;2023-05-08T02:17:43;101526.19;;;9.23;84.85
16690;BME280;8458;52.220;9.884;2023-05-08T02:20:13;101523.44;;;9.23;84.41
16690;BME280;8458;52.220;9.884;2023-05-08T02:22:42;101527.78;;;9.19;84.76
16690;BME280;8458;52.220;9.884;2023-05-08T02:25:11;101531.97;;;9.21;84.77
16690;BME280;8458;52.220;9.884;2023-05-08T02:27:39;101529.06;;;9.16;84.92
16690;BME280;8458;52.220;9.884;2023-05-08T02:30:09;101534.97;;;9.20;84.79
16690;BME280;8458;52.220;9.884;2023-05-08T02:32:40;101526.19;;;9.23;85.12
16690;BME280;8458;52.220;9.884;2023-05-08T02:35:08;101531.72;;;9.23;85.14
16690;BME280;8458;52.220;9.884;2023-05-08T02:37:39;101533.56;;;9.29;84.85
16690;BME280;8458;52.220;9.884;2023-05-08T02:40:09;101536.44;;;9.34;84.20
16690;BME280;8458;52.220;9.884;2023-05-08T02:42:36;101533.44;;;9.36;84.04
16690;BME280;8458;52.220;9.884;2023-05-08T02:45:04;101530.09;;;9.33;83.87
16690;BME280;8458;52.220;9.884;2023-05-08T02:47:37;101531.53;;;9.36;83.41
16690;BME280;8458;52.220;9.884;2023-05-08T02:50:10;101527.56;;;9.32;83.30
16690;BME280;8458;52.220;9.884;2023-05-08T02:52:43;101528.97;;;9.23;83.72
16690;BME280;8458;52.220;9.884;2023-05-08T02:55:15;101526.53;;;9.14;83.88
16690;BME280;8458;52.220;9.884;2023-05-08T02:57:49;101523.00;;;9.07;84.30
16690;BME280;8458;52.220;9.884;2023-05-08T03:00:21;101526.25;;;9.04;84.41
16690;BME280;8458;52.220;9.884;2023-05-08T03:02:52;101528.75;;;8.94;84.86
16690;BME280;8458;52.220;9.884;2023-05-08T03:05:25;101519.22;;;8.90;85.05
16690;BME280;8458;52.220;9.884;2023-05-08T03:07:59;101517.63;;;8.82;85.43
16690;BME280;8458;52.220;9.884;2023-05-08T03:10:32;101505.25;;;8.85;85.62
16690;BME280;8458;52.220;9.884;2023-05-08T03:13:01;101514.16;;;8.87;85.28
16690;BME280;8458;52.220;9.884;2023-05-08T03:15:32;101513.31;;;8.86;85.15
16690;BME280;8458;52.220;9.884;2023-05-08T03:18:04;101512.00;;;8.89;85.12
16690;BME280;8458;52.220;9.884;2023-05-08T03:20:36;101519.31;;;8.83;84.82
16690;BME280;8458;52.220;9.884;2023-05-08T03:23:07;101518.22;;;8.84;85.09
16690;BME280;8458;52.220;9.884;2023-05-08T03:25:35;101518.44;;;8.83;85.28
16690;BME280;8458;52.220;9.884;2023-05-08T03:28:04;101514.16;;;8.87;84.90
16690;BME280;8458;52.220;9.884;2023-05-08T03:30:32;101515.00;;;8.87;84.49
16690;BME280;8458;52.220;9.884;2023-05-08T03:33:02;101513.09;;;8.88;84.42
16690;BME280;8458;52.220;9.884;2023-05-08T03:35:30;101510.16;;;8.83;84.35
16690;BME280;8458;52.220;9.884;2023-05-08T03:37:57;101518.91;;;8.79;84.41
16690;BME280;8458;52.220;9.884;2023-05-08T03:40:26;101511.31;;;8.75;84.74
16690;BME280;8458;52.220;9.884;2023-05-08T03:42:53;101506.66;;;8.75;84.33
16690;BME280;8458;52.220;9.884;2023-05-08T03:45:20;101512.47;;;8.67;84.74
16690;BME280;8458;52.220;9.884;2023-05-08T03:47:47;101508.34;;;8.58;85.31
16690;BME280;8458;52.220;9.884;2023-05-08T03:50:14;101512.34;;;8.62;85.22
16690;BME280;8458;52.220;9.884;2023-05-08T03:52:41;101506.56;;;8.64;85.48
16690;BME280;8458;52.220;9.884;2023-05-08T03:55:08;101515.78;;;8.57;85.65
16690;BME280;8458;52.220;9.884;2023-05-08T03:57:39;101516.81;;;8.63;85.37
16690;BME280;8458;52.220;9.884;2023-05-08T04:00:13;101511.56;;;8.55;85.51
16690;BME280;8458;52.220;9.884;2023-05-08T04:02:51;101509.50;;;8.50;86.12
16690;BME280;8458;52.220;9.884;2023-05-08T04:05:26;101511.19;;;8.51;86.21
16690;BME280;8458;52.220;9.884;2023-05-08T04:08:02;101517.97;;;8.55;86.38
16690;BME280;8458;52.220;9.884;2023-05-08T04:10:31;101513.63;;;8.59;86.36
16690;BME280;8458;52.220;9.884;2023-05-08T04:13:04;101519.56;;;8.63;86.60
16690;BME280;8458;52.220;9.884;2023-05-08T04:15:34;101520.31;;;8.70;86.20
16690;BME280;8458;52.220;9.884;2023-05-08T04:18:05;101527.16;;;8.68;86.00
16690;BME280;8458;52.220;9.884;2023-05-08T04:20:33;101523.06;;;8.70;86.20
16690;BME280;8458;52.220;9.884;2023-05-08T04:23:01;101518.41;;;8.71;86.21
16690;BME280;8458;52.220;9.884;2023-05-08T04:25:29;101521.41;;;8.69;86.22
16690;BME280;8458;52.220;9.884;2023-05-08T04:27:59;101514.78;;;8.70;86.40
16690;BME280;8458;52.220;9.884;2023-05-08T04:30:28;101518.25;;;8.66;86.94
16690;BME280;8458;52.220;9.884;2023-05-08T04:32:56;101515.25;;;8.67;87.21
16690;BME280;8458;52.220;9.884;2023-05-08T04:35:23;101519.81;;;8.61;87.33
16690;BME280;8458;52.220;9.884;2023-05-08T04:37:50;101525.56;;;8.60;87.68
16690;BME280;8458;52.220;9.884;2023-05-08T04:40:16;101521.94;;;8.59;88.00
16690;BME280;8458;52.220;9.884;2023-05-08T04:42:43;101532.94;;;8.66;88.02
16690;BME280;8458;52.220;9.884;2023-05-08T04:45:11;101532.28;;;8.64;87.69
16690;BME280;8458;52.220;9.884;2023-05-08T04:47:39;101540.75;;;8.69;87.39
16690;BME280;8458;52.220;9.884;2023-05-08T04:50:06;101533.91;;;8.72;87.92
16690;BME280;8458;52.220;9.884;2023-05-08T04:52:33;101540.31;;;8.72;88.03
16690;BME280;8458;52.220;9.884;2023-05-08T04:54:59;101539.38;;;8.78;87.96
16690;BME280;8458;52.220;9.884;2023-05-08T04:57:26;101537.81;;;8.83;87.23
16690;BME280;8458;52.220;9.884;2023-05-08T04:59:52;101546.09;;;8.83;87.21
16690;BME280;8458;52.220;9.884;2023-05-08T05:02:19;101544.44;;;8.82;87.33
16690;BME280;8458;52.220;9.884;2023-05-08T05:04:46;101542.75;;;8.81;88.20
16690;BME280;8458;52.220;9.884;2023-05-08T05:07:13;101555.03;;;8.85;88.53
16690;BME280;8458;52.220;9.884;2023-05-08T05:09:39;101557.09;;;8.89;88.06
16690;BME280;8458;52.220;9.884;2023-05-08T05:12:06;101552.03;;;8.86;88.42
16690;BME280;8458;52.220;9.884;2023-05-08T05:14:32;101549.88;;;8.88;88.49
16690;BME280;8458;52.220;9.884;2023-05-08T05:16:59;101552.19;;;8.91;88.46
16690;BME280;8458;52.220;9.884;2023-05-08T05:19:25;101550.25;;;8.92;87.96
16690;BME280;8458;52.220;9.884;2023-05-08T05:21:53;101554.94;;;8.91;87.76
16690;BME280;8458;52.220;9.884;2023-05-08T05:24:20;101555.63;;;8.87;88.38
16690;BME280;8458;52.220;9.884;2023-05-08T05:26:46;101556.25;;;8.89;88.32
16690;BME280;8458;52.220;9.884;2023-05-08T05:29:13;101547.34;;;8.87;88.07
16690;BME280;8458;52.220;9.884;2023-05-08T05:31:39;101546.09;;;8.83;88.42
16690;BME280;8458;52.220;9.884;2023-05-08T05:34:06;101548.28;;;8.81;88.13
16690;BME280;8458;52.220;9.884;2023-05-08T05:36:33;101552.66;;;8.70;88.50
16690;BME280;8458;52.220;9.884;2023-05-08T05:39:00;101553.94;;;8.67;89.62
16690;BME280;8458;52.220;9.884;2023-05-08T05:41:27;101554.66;;;8.63;89.64
16690;BME280;8458;52.220;9.884;2023-05-08T05:43:53;101552.75;;;8.63;89.54
16690;BME280;8458;52.220;9.884;2023-05-08T05:46:20;101547.81;;;8.65;90.31
16690;BME280;8458;52.220;9.884;2023-05-08T05:48:50;101559.47;;;8.67;90.70
16690;BME280;8458;52.220;9.884;2023-05-08T05:51:17;101558.19;;;8.70;91.15
16690;BME280;8458;52.220;9.884;2023-05-08T05:53:43;101553.03;;;8.73;91.09
16690;BME280;8458;52.220;9.884;2023-05-08T05:56:11;101553.03;;;8.73;90.16
16690;BME280;8458;52.220;9.884;2023-05-08T05:58:37;101559.78;;;8.77;89.71
16690;BME280;8458;52.220;9.884;2023-05-08T06:01:04;101564.88;;;8.81;89.57
16690;BME280;8458;52.220;9.884;2023-05-08T06:03:31;101563.94;;;8.87;90.26
16690;BME280;8458;52.220;9.884;2023-05-08T06:05:57;101548.19;;;8.87;90.97
16690;BME280;8458;52.220;9.884;2023-05-08T06:08:24;101555.94;;;8.97;90.80
16690;BME280;8458;52.220;9.884;2023-05-08T06:10:51;101554.53;;;9.06;91.02
16690;BME280;8458;52.220;9.884;2023-05-08T06:13:19;101551.22;;;9.16;90.80
16690;BME280;8458;52.220;9.884;2023-05-08T06:15:45;101564.25;;;9.27;91.02
16690;BME280;8458;52.220;9.884;2023-05-08T06:18:12;101565.84;;;9.35;89.50
16690;BME280;8458;52.220;9.884;2023-05-08T06:20:38;101569.97;;;9.44;88.18
16690;BME280;8458;52.220;9.884;2023-05-08T06:23:05;101563.94;;;9.47;87.71
16690;BME280;8458;52.220;9.884;2023-05-08T06:25:31;101566.84;;;9.52;87.30
16690;BME280;8458;52.220;9.884;2023-05-08T06:27:59;101574.06;;;9.54;87.82
16690;BME280;8458;52.220;9.884;2023-05-08T06:30:33;101572.19;;;9.66;88.45
16690;BME280;8458;52.220;9.884;2023-05-08T06:33:04;101571.59;;;9.76;86.41
16690;BME280;8458;52.220;9.884;2023-05-08T06:35:33;101564.63;;;9.85;87.83
16690;BME280;8458;52.220;9.884;2023-05-08T06:38:00;101566.94;;;10.00;88.07
16690;BME280;8458;52.220;9.884;2023-05-08T06:40:27;101568.38;;;10.14;87.31
16690;BME280;8458;52.220;9.884;2023-05-08T06:42:53;101568.75;;;10.30;86.32
16690;BME280;8458;52.220;9.884;2023-05-08T06:45:20;101574.09;;;10.43;85.97
16690;BME280;8458;52.220;9.884;2023-05-08T06:47:47;101573.13;;;10.49;83.99
16690;BME280;8458;52.220;9.884;2023-05-08T06:50:14;101572.88;;;10.51;82.57
16690;BME280;8458;52.220;9.884;2023-05-08T06:52:40;101568.16;;;10.51;82.79
16690;BME280;8458;52.220;9.884;2023-05-08T06:55:07;101572.16;;;10.55;83.00
16690;BME280;8458;52.220;9.884;2023-05-08T06:57:34;101572.25;;;10.61;82.61
16690;BME280;8458;52.220;9.884;2023-05-08T07:00:01;101565.25;;;10.70;82.35
16690;BME280;8458;52.220;9.884;2023-05-08T07:02:28;101567.28;;;10.74;81.99
16690;BME280;8458;52.220;9.884;2023-05-08T07:04:56;101566.56;;;10.79;81.40
16690;BME280;8458;52.220;9.884;2023-05-08T07:07:22;101569.19;;;10.86;82.25
16690;BME280;8458;52.220;9.884;2023-05-08T07:09:49;101576.91;;;10.96;81.50
16690;BME280;8458;52.220;9.884;2023-05-08T07:12:15;101572.53;;;11.00;81.05
16690;BME280;8458;52.220;9.884;2023-05-08T07:14:42;101569.25;;;11.03;80.38
16690;BME280;8458;52.220;9.884;2023-05-08T07:17:08;101573.81;;;11.09;80.47
16690;BME280;8458;52.220;9.884;2023-05-08T07:19:35;101574.53;;;11.16;80.66
16690;BME280;8458;52.220;9.884;2023-05-08T07:22:03;101568.69;;;11.29;81.71
16690;BME280;8458;52.220;9.884;2023-05-08T07:24:31;101572.09;;;11.48;82.59
16690;BME280;8458;52.220;9.884;2023-05-08T07:26:57;101565.72;;;11.65;80.41
16690;BME280;8458;52.220;9.884;2023-05-08T07:29:24;101573.72;;;11.78;80.95
16690;BME280;8458;52.220;9.884;2023-05-08T07:31:51;101566.91;;;11.86;78.66
16690;BME280;8458;52.220;9.884;2023-05-08T07:34:17;101573.19;;;11.93;78.80
16690;BME280;8458;52.220;9.884;2023-05-08T07:36:44;101576.38;;;12.02;77.81
16690;BME280;8458;52.220;9.884;2023-05-08T07:39:11;101565.66;;;12.11;78.27
16690;BME280;8458;52.220;9.884;2023-05-08T07:41:38;101579.38;;;12.17;77.18
16690;BME280;8458;52.220;9.884;2023-05-08T07:44:05;101575.34;;;12.25;76.97
16690;BME280;8458;52.220;9.884;2023-05-08T07:46:31;101571.78;;;12.30;76.93
16690;BME280;8458;52.220;9.884;2023-05-08T07:48:58;101575.00;;;12.38;77.89
16690;BME280;8458;52.220;9.884;2023-05-08T07:51:25;101568.41;;;12.45;77.72
16690;BME280;8458;52.220;9.884;2023-05-08T07:53:51;101570.41;;;12.49;76.91
16690;BME280;8458;52.220;9.884;2023-05-08T07:56:20;101570.22;;;12.56;77.46
16690;BME280;8458;52.220;9.884;2023-05-08T07:58:47;101571.56;;;12.70;77.52
16690;BME280;8458;52.220;9.884;2023-05-08T08:01:13;101570.00;;;12.80;76.41
16690;BME280;8458;52.220;9.884;2023-05-08T08:03:42;101570.63;;;12.87;74.56
16690;BME280;8458;52.220;9.884;2023-05-08T08:06:08;101565.22;;;12.97;76.94
16690;BME280;8458;52.220;9.884;2023-05-08T08:08:34;101571.94;;;13.01;74.94
16690;BME280;8458;52.220;9.884;2023-05-08T08:11:01;101580.34;;;13.06;75.83
16690;BME280;8458;52.220;9.884;2023-05-08T08:13:29;101585.72;;;13.13;74.64
16690;BME280;8458;52.220;9.884;2023-05-08T08:15:55;101577.22;;;13.25;76.38
16690;BME280;8458;52.220;9.884;2023-05-08T08:18:22;101579.06;;;13.36;75.33
16690;BME280;8458;52.220;9.884;2023-05-08T08:20:48;101582.53;;;13.49;75.92
16690;BME280;8458;52.220;9.884;2023-05-08T08:23:15;101577.06;;;13.59;73.89
16690;BME280;8458;52.220;9.884;2023-05-08T08:25:41;101568.53;;;13.71;73.55
16690;BME280;8458;52.220;9.884;2023-05-08T08:28:08;101579.75;;;13.76;73.09
16690;BME280;8458;52.220;9.884;2023-05-08T08:30:35;101585.13;;;13.88;74.72
16690;BME280;8458;52.220;9.884;2023-05-08T08:33:02;101578.00;;;14.02;74.68
16690;BME280;8458;52.220;9.884;2023-05-08T08:35:31;101570.03;;;14.16;72.88
16690;BME280;8458;52.220;9.884;2023-05-08T08:37:57;101576.75;;;14.20;72.45
16690;BME280;8458;52.220;9.884;2023-05-08T08:40:24;101565.97;;;14.34;72.39
16690;BME280;8458;52.220;9.884;2023-05-08T08:42:51;101574.41;;;14.44;71.32
16690;BME280;8458;52.220;9.884;2023-05-08T08:45:17;101569.41;;;14.51;72.02
16690;BME280;8458;52.220;9.884;2023-05-08T08:47:47;101567.22;;;14.59;70.91
16690;BME280;8458;52.220;9.884;2023-05-08T08:50:14;101555.84;;;14.65;69.34
16690;BME280;8458;52.220;9.884;2023-05-08T08:52:46;101559.22;;;14.73;71.54
16690;BME280;8458;52.220;9.884;2023-05-08T08:55:15;101558.97;;;14.79;71.02
16690;BME280;8458;52.220;9.884;2023-05-08T08:57:48;101559.03;;;14.84;70.21
16690;BME280;8458;52.220;9.884;2023-05-08T09:00:19;101549.25;;;14.87;70.46
16690;BME280;8458;52.220;9.884;2023-05-08T09:02:48;101551.25;;;14.97;69.97
16690;BME280;8458;52.220;9.884;2023-05-08T09:05:15;101552.41;;;15.06;69.21
16690;BME280;8458;52.220;9.884;2023-05-08T09:07:42;101551.88;;;15.19;69.96
16690;BME280;8458;52.220;9.884;2023-05-08T09:10:10;101553.31;;;15.37;70.50
16690;BME280;8458;52.220;9.884;2023-05-08T09:12:39;101555.84;;;15.59;69.30
16690;BME280;8458;52.220;9.884;2023-05-08T09:15:06;101544.44;;;15.66;67.46
16690;BME280;8458;52.220;9.884;2023-05-08T09:17:33;101543.88;;;15.80;68.17
16690;BME280;8458;52.220;9.884;2023-05-08T09:20:01;101543.06;;;15.94;69.79
16690;BME280;8458;52.220;9.884;2023-05-08T09:22:27;101541.94;;;16.01;67.57
16690;BME280;8458;52.220;9.884;2023-05-08T09:24:55;101528.47;;;16.08;66.48
16690;BME280;8458;52.220;9.884;2023-05-08T09:27:23;101528.50;;;16.13;66.92
16690;BME280;8458;52.220;9.884;2023-05-08T09:30:01;101534.09;;;16.13;66.16
16690;BME280;8458;52.220;9.884;2023-05-08T09:32:29;101520.66;;;16.15;65.99
16690;BME280;8458;52.220;9.884;2023-05-08T09:34:55;101532.13;;;16.24;67.61
16690;BME280;8458;52.220;9.884;2023-05-08T09:37:24;101530.41;;;16.38;68.76
16690;BME280;8458;52.220;9.884;2023-05-08T09:39:51;101520.81;;;16.60;69.22
16690;BME280;8458;52.220;9.884;2023-05-08T09:42:17;101526.91;;;16.82;69.13
16690;BME280;8458;52.220;9.884;2023-05-08T09:44:45;101526.88;;;16.98;66.16
16690;BME280;8458;52.220;9.884;2023-05-08T09:47:13;101528.22;;;17.06;64.69
16690;BME280;8458;52.220;9.884;2023-05-08T09:49:55;101523.38;;;17.16;65.85
16690;BME280;8458;52.220;9.884;2023-05-08T09:52:23;101530.09;;;17.20;63.99
16690;BME280;8458;52.220;9.884;2023-05-08T09:54:55;101529.75;;;17.27;64.78
16690;BME280;8458;52.220;9.884;2023-05-08T09:57:22;101535.31;;;17.37;63.56
16690;BME280;8458;52.220;9.884;2023-05-08T09:59:48;101525.69;;;17.49;64.41
16690;BME280;8458;52.220;9.884;2023-05-08T10:02:15;101532.41;;;17.53;60.72
16690;BME280;8458;52.220;9.884;2023-05-08T10:04:44;101526.72;;;17.63;62.87
16690;BME280;8458;52.220;9.884;2023-05-08T10:07:11;101516.63;;;17.62;60.08
16690;BME280;8458;52.220;9.884;2023-05-08T10:09:57;101518.25;;;17.68;62.91
16690;BME280;8458;52.220;9.884;2023-05-08T10:12:25;101515.97;;;17.76;60.68
16690;BME280;8458;52.220;9.884;2023-05-08T10:14:51;101513.16;;;17.76;58.66
16690;BME280;8458;52.220;9.884;2023-05-08T10:17:25;101513.16;;;17.76;59.97
16690;BME280;8458;52.220;9.884;2023-05-08T10:19:57;101512.56;;;17.79;60.92
16690;BME280;8458;52.220;9.884;2023-05-08T10:22:26;101503.59;;;17.77;59.32
16690;BME280;8458;52.220;9.884;2023-05-08T10:24:56;101509.72;;;17.84;59.33
16690;BME280;8458;52.220;9.884;2023-05-08T10:27:29;101512.22;;;17.85;59.50
16690;BME280;8458;52.220;9.884;2023-05-08T10:30:00;101502.97;;;17.85;59.41
16690;BME280;8458;52.220;9.884;2023-05-08T10:32:36;101509.13;;;17.87;59.58
16690;BME280;8458;52.220;9.884;2023-05-08T10:35:07;101499.59;;;17.88;60.34
16690;BME280;8458;52.220;9.884;2023-05-08T10:37:35;101501.53;;;17.92;60.53
16690;BME280;8458;52.220;9.884;2023-05-08T10:40:05;101505.38;;;18.02;59.54
16690;BME280;8458;52.220;9.884;2023-05-08T10:42:32;101498.91;;;18.01;60.84
16690;BME280;8458;52.220;9.884;2023-05-08T10:45:00;101503.94;;;18.04;61.79
16690;BME280;8458;52.220;9.884;2023-05-08T10:47:43;101503.84;;;18.15;62.91
16690;BME280;8458;52.220;9.884;2023-05-08T10:50:21;101495.72;;;18.13;59.53
16690;BME280;8458;52.220;9.884;2023-05-08T10:52:56;101497.44;;;18.09;58.86
16690;BME280;8458;52.220;9.884;2023-05-08T10:55:29;101500.50;;;18.13;60.51
16690;BME280;8458;52.220;9.884;2023-05-08T10:58:09;101492.38;;;18.11;59.99
16690;BME280;8458;52.220;9.884;2023-05-08T11:01:11;101493.28;;;18.06;58.02
16690;BME280;8458;52.220;9.884;2023-05-08T11:03:38;101493.31;;;18.01;59.05
16690;BME280;8458;52.220;9.884;2023-05-08T11:06:05;101497.72;;;18.07;58.74
16690;BME280;8458;52.220;9.884;2023-05-08T11:08:42;101496.53;;;18.14;58.87
16690;BME280;8458;52.220;9.884;2023-05-08T11:11:15;101500.97;;;18.20;59.07
16690;BME280;8458;52.220;9.884;2023-05-08T11:13:46;101495.03;;;18.26;58.51
16690;BME280;8458;52.220;9.884;2023-05-08T11:16:13;101486.31;;;18.28;59.41
16690;BME280;8458;52.220;9.884;2023-05-08T11:19:15;101484.53;;;18.37;62.72
16690;BME280;8458;52.220;9.884;2023-05-08T11:22:15;101478.78;;;18.48;59.73
16690;BME280;8458;52.220;9.884;2023-05-08T11:24:51;101477.72;;;18.43;59.73
16690;BME280;8458;52.220;9.884;2023-05-08T11:27:31;101477.09;;;18.46;58.37
16690;BME280;8458;52.220;9.884;2023-05-08T11:33:13;101462.84;;;18.62;57.54
16690;BME280;8458;52.220;9.884;2023-05-08T11:35:41;101467.41;;;18.58;57.57
16690;BME280;8458;52.220;9.884;2023-05-08T11:38:16;101467.88;;;18.65;57.22
16690;BME280;8458;52.220;9.884;2023-05-08T11:40:47;101468.16;;;18.63;58.57
16690;BME280;8458;52.220;9.884;2023-05-08T11:43:40;101469.63;;;18.61;57.12
16690;BME280;8458;52.220;9.884;2023-05-08T11:46:13;101462.63;;;18.58;57.64
16690;BME280;8458;52.220;9.884;2023-05-08T11:48:40;101453.69;;;18.56;56.85
16690;BME280;8458;52.220;9.884;2023-05-08T11:51:07;101454.50;;;18.57;56.83
16690;BME280;8458;52.220;9.884;2023-05-08T11:53:35;101457.00;;;18.58;57.39
16690;BME280;8458;52.220;9.884;2023-05-08T11:56:02;101456.63;;;18.65;57.60
16690;BME280;8458;52.220;9.884;2023-05-08T11:58:30;101458.84;;;18.68;55.90
16690;BME280;8458;52.220;9.884;2023-05-08T12:00:57;101465.53;;;18.72;57.29
16690;BME280;8458;52.220;9.884;2023-05-08T12:03:24;101463.81;;;18.76;56.44
16690;BME280;8458;52.220;9.884;2023-05-08T12:05:50;101457.25;;;18.86;56.06
16690;BME280;8458;52.220;9.884;2023-05-08T12:08:20;101468.09;;;18.93;57.65
16690;BME280;8458;52.220;9.884;2023-05-08T12:10:51;101466.53;;;19.06;58.37
16690;BME280;8458;52.220;9.884;2023-05-08T12:13:19;101470.75;;;19.22;55.64
16690;BME280;8458;52.220;9.884;2023-05-08T12:15:49;101463.00;;;19.33;53.77
16690;BME280;8458;52.220;9.884;2023-05-08T12:18:17;101472.59;;;19.32;52.81
16690;BME280;8458;52.220;9.884;2023-05-08T12:20:44;101468.09;;;19.31;55.35
16690;BME280;8458;52.220;9.884;2023-05-08T12:23:11;101468.94;;;19.31;55.13
16690;BME280;8458;52.220;9.884;2023-05-08T12:25:39;101468.63;;;19.33;54.95
16690;BME280;8458;52.220;9.884;2023-05-08T12:28:06;101459.53;;;19.41;53.79
16690;BME280;8458;52.220;9.884;2023-05-08T12:30:33;101449.31;;;19.45;53.44
16690;BME280;8458;52.220;9.884;2023-05-08T12:33:01;101460.50;;;19.50;53.80
16690;BME280;8458;52.220;9.884;2023-05-08T12:35:28;101455.28;;;19.58;54.63
16690;BME280;8458;52.220;9.884;2023-05-08T12:37:59;101460.53;;;19.64;54.17
16690;BME280;8458;52.220;9.884;2023-05-08T12:40:28;101459.50;;;19.74;52.52
16690;BME280;8458;52.220;9.884;2023-05-08T12:42:55;101454.88;;;19.83;51.95
16690;BME280;8458;52.220;9.884;2023-05-08T12:45:23;101468.53;;;19.90;52.21
16690;BME280;8458;52.220;9.884;2023-05-08T12:47:52;101467.63;;;19.95;51.81
16690;BME280;8458;52.220;9.884;2023-05-08T12:50:20;101463.34;;;19.97;53.68
16690;BME280;8458;52.220;9.884;2023-05-08T12:52:48;101465.25;;;20.02;51.73
16690;BME280;8458;52.220;9.884;2023-05-08T12:55:22;101463.16;;;20.08;52.49
16690;BME280;8458;52.220;9.884;2023-05-08T12:57:56;101466.59;;;20.18;53.38
16690;BME280;8458;52.220;9.884;2023-05-08T13:00:24;101461.91;;;20.28;53.55
16690;BME280;8458;52.220;9.884;2023-05-08T13:02:51;101459.41;;;20.40;54.31
16690;BME280;8458;52.220;9.884;2023-05-08T13:05:21;101450.44;;;20.38;53.12
16690;BME280;8458;52.220;9.884;2023-05-08T13:07:48;101455.56;;;20.36;50.62
16690;BME280;8458;52.220;9.884;2023-05-08T13:10:15;101450.03;;;20.31;50.93
16690;BME280;8458;52.220;9.884;2023-05-08T13:12:43;101446.81;;;20.37;51.69
16690;BME280;8458;52.220;9.884;2023-05-08T13:15:09;101439.94;;;20.44;53.84
16690;BME280;8458;52.220;9.884;2023-05-08T13:17:36;101445.75;;;20.47;52.15
16690;BME280;8458;52.220;9.884;2023-05-08T13:20:03;101442.81;;;20.52;51.60